Time,TemperatureF,DewpointF,PressureIn,WindDirection,WindDirectionDegrees,WindSpeedMPH,WindSpeedGustMPH,Humidity,HourlyPrecipIn,Conditions,Clouds,dailyrainin,SoftwareType,DateUTC
2013-09-16 00:04:00,53.0,47.0,-100.00,NE,47,10.0,21.0,80,0.00,,,0.66,,2013-09-16 05:04:00,
2013-09-16 00:13:00,53.0,47.0,-100.00,NE,47,10.0,21.0,80,0.00,,,0.66,,2013-09-16 05:13:00,
2013-09-16 00:22:00,53.0,47.0,-100.00,NE,47,10.0,21.0,80,0.00,,,0.66,,2013-09-16 05:22:00,
2013-09-16 00:53:00,52.0,45.0,-100.00,NE,44,9.0,18.0,78,0.00,,,0.66,,2013-09-16 05:53:00,
2013-09-16 01:03:00,52.0,45.0,-100.00,NE,44,9.0,18.0,78,0.00,,,0.66,,2013-09-16 06:03:00,
2013-09-16 01:12:00,52.0,45.0,-100.00,NE,44,9.0,18.0,78,0.00,,,0.66,,2013-09-16 06:12:00,
2013-09-16 01:22:00,52.0,45.0,-100.00,NE,44,9.0,18.0,78,0.00,,,0.66,,2013-09-16 06:22:00,
2013-09-16 01:52:00,50.0,43.0,-100.00,NE,49,7.0,14.0,77,0.00,,,0.66,,2013-09-16 06:52:00,
2013-09-16 02:02:00,50.0,43.0,-100.00,NE,49,7.0,14.0,77,0.00,,,0.66,,2013-09-16 07:02:00,
2013-09-16 02:11:00,50.0,43.0,-100.00,NE,49,7.0,14.0,77,0.00,,,0.66,,2013-09-16 07:11:00,
2013-09-16 02:22:00,50.0,43.0,-100.00,NE,49,7.0,14.0,77,0.00,,,0.66,,2013-09-16 07:22:00,
2013-09-16 02:52:00,48.0,41.0,-100.00,North,9,7.0,14.0,76,0.00,,,0.66,,2013-09-16 07:52:00,
2013-09-16 03:02:00,48.0,41.0,-100.00,North,9,7.0,14.0,76,0.00,,,0.66,,2013-09-16 08:02:00,
2013-09-16 03:11:00,48.0,41.0,-100.00,North,9,7.0,14.0,76,0.00,,,0.66,,2013-09-16 08:11:00,
2013-09-16 03:22:00,48.0,41.0,-100.00,North,9,7.0,14.0,76,0.00,,,0.66,,2013-09-16 08:22:00,
2013-09-16 03:52:00,45.0,41.0,-100.00,NE,41,5.0,8.0,85,0.00,,,0.61,,2013-09-16 08:52:00,
2013-09-16 04:02:00,45.0,41.0,-100.00,NE,41,5.0,8.0,85,0.00,,,0.61,,2013-09-16 09:02:00,
2013-09-16 04:12:00,45.0,41.0,-100.00,NE,41,5.0,8.0,85,0.00,,,0.61,,2013-09-16 09:12:00,
2013-09-16 04:22:00,45.0,41.0,-100.00,NE,41,5.0,8.0,85,0.00,,,0.61,,2013-09-16 09:22:00,
2013-09-16 04:53:00,44.0,42.0,-100.00,North,353,3.0,6.0,92,0.00,,,0.54,,2013-09-16 09:53:00,
2013-09-16 05:03:00,44.0,42.0,-100.00,North,353,3.0,6.0,92,0.00,,,0.54,,2013-09-16 10:03:00,
2013-09-16 05:12:00,44.0,42.0,-100.00,North,353,3.0,6.0,92,0.00,,,0.54,,2013-09-16 10:12:00,
2013-09-16 05:23:00,44.0,42.0,-100.00,North,353,3.0,6.0,92,0.00,,,0.54,,2013-09-16 10:23:00,
2013-09-16 05:53:00,42.0,40.0,-100.00,North,351,4.0,5.0,93,0.00,,,0.52,,2013-09-16 10:53:00,
2013-09-16 06:02:00,42.0,40.0,-100.00,North,351,4.0,5.0,93,0.00,,,0.52,,2013-09-16 11:02:00,
2013-09-16 06:12:00,42.0,40.0,-100.00,North,351,4.0,5.0,93,0.00,,,0.52,,2013-09-16 11:12:00,
2013-09-16 06:22:00,42.0,40.0,-100.00,North,351,4.0,5.0,93,0.00,,,0.52,,2013-09-16 11:22:00,
2013-09-16 06:52:00,40.0,39.0,-100.00,North,8,4.0,5.0,96,0.00,,,0.51,,2013-09-16 11:52:00,
2013-09-16 07:01:00,40.0,39.0,-100.00,North,8,4.0,5.0,96,0.00,,,0.51,,2013-09-16 12:01:00,
2013-09-16 07:12:00,40.0,39.0,-100.00,North,8,4.0,5.0,96,0.00,,,0.51,,2013-09-16 12:12:00,
2013-09-16 07:22:00,40.0,39.0,-100.00,North,8,4.0,5.0,96,0.00,,,0.51,,2013-09-16 12:22:00,
2013-09-16 07:52:00,42.0,40.0,-100.00,North,4,5.0,9.0,94,0.00,,,0.50,,2013-09-16 12:52:00,
2013-09-16 08:02:00,42.0,40.0,-100.00,North,4,5.0,9.0,94,0.00,,,0.50,,2013-09-16 13:02:00,
2013-09-16 08:11:00,42.0,40.0,-100.00,North,4,5.0,9.0,94,0.00,,,0.50,,2013-09-16 13:11:00,
2013-09-16 08:22:00,42.0,40.0,-100.00,North,4,5.0,9.0,94,0.00,,,0.50,,2013-09-16 13:22:00,
2013-09-16 08:52:00,46.0,43.0,-100.00,North,7,6.0,12.0,88,0.00,,,0.50,,2013-09-16 13:52:00,
2013-09-16 09:02:00,46.0,43.0,-100.00,North,7,6.0,12.0,88,0.00,,,0.50,,2013-09-16 14:02:00,
2013-09-16 09:11:00,46.0,43.0,-100.00,North,7,6.0,12.0,88,0.00,,,0.50,,2013-09-16 14:11:00,
2013-09-16 09:22:00,46.0,43.0,-100.00,North,7,6.0,12.0,88,0.00,,,0.50,,2013-09-16 14:22:00,
2013-09-16 09:52:00,52.0,45.0,-100.00,NNE,19,8.0,12.0,78,0.00,,,0.46,,2013-09-16 14:52:00,
2013-09-16 10:02:00,52.0,45.0,-100.00,NNE,19,8.0,12.0,78,0.00,,,0.46,,2013-09-16 15:02:00,
2013-09-16 10:12:00,52.0,45.0,-100.00,NNE,19,8.0,12.0,78,0.00,,,0.46,,2013-09-16 15:12:00,
2013-09-16 10:22:00,52.0,45.0,-100.00,NNE,19,8.0,12.0,78,0.00,,,0.46,,2013-09-16 15:22:00,
2013-09-16 10:53:00,56.0,44.0,-100.00,NE,38,9.0,15.0,65,0.00,,,0.34,,2013-09-16 15:53:00,
2013-09-16 11:03:00,56.0,44.0,-100.00,NE,38,9.0,15.0,65,0.00,,,0.34,,2013-09-16 16:03:00,
2013-09-16 11:12:00,56.0,44.0,-100.00,NE,38,9.0,15.0,65,0.00,,,0.34,,2013-09-16 16:12:00,
2013-09-16 11:23:00,56.0,44.0,-100.00,NE,38,9.0,15.0,65,0.00,,,0.34,,2013-09-16 16:23:00,
2013-09-16 11:52:00,58.0,44.0,-100.00,NE,41,8.0,15.0,60,0.00,,,0.20,,2013-09-16 16:52:00,
2013-09-16 12:03:00,58.0,44.0,-100.00,NE,41,8.0,15.0,60,0.00,,,0.20,,2013-09-16 17:03:00,
2013-09-16 12:12:00,58.0,44.0,-100.00,NE,41,8.0,15.0,60,0.00,,,0.20,,2013-09-16 17:12:00,
2013-09-16 12:23:00,58.0,44.0,-100.00,NE,41,8.0,15.0,60,0.00,,,0.20,,2013-09-16 17:23:00,
2013-09-16 12:53:00,60.0,43.0,-100.00,ENE,70,8.0,15.0,53,0.00,,,0.05,,2013-09-16 17:53:00,
2013-09-16 13:02:00,60.0,43.0,-100.00,ENE,70,8.0,15.0,53,0.00,,,0.05,,2013-09-16 18:02:00,
2013-09-16 13:12:00,60.0,43.0,-100.00,ENE,70,8.0,15.0,53,0.00,,,0.05,,2013-09-16 18:12:00,
2013-09-16 13:22:00,60.0,43.0,-100.00,ENE,70,8.0,15.0,53,0.00,,,0.05,,2013-09-16 18:22:00,
2013-09-16 13:52:00,62.0,43.0,-100.00,NE,53,7.0,13.0,50,0.00,,,0.00,,2013-09-16 18:52:00,
2013-09-16 14:01:00,62.0,43.0,-100.00,NE,53,7.0,13.0,50,0.00,,,0.00,,2013-09-16 19:01:00,
2013-09-16 14:11:00,62.0,43.0,-100.00,NE,53,7.0,13.0,50,0.00,,,0.00,,2013-09-16 19:11:00,
2013-09-16 14:22:00,62.0,43.0,-100.00,NE,53,7.0,13.0,50,0.00,,,0.00,,2013-09-16 19:22:00,
2013-09-16 14:53:00,64.0,43.0,-100.00,ENE,63,6.0,12.0,47,0.00,,,0.00,,2013-09-16 19:53:00,
2013-09-16 15:03:00,64.0,43.0,-100.00,ENE,63,6.0,12.0,47,0.00,,,0.00,,2013-09-16 20:03:00,
2013-09-16 15:11:00,64.0,43.0,-100.00,ENE,63,6.0,12.0,47,0.00,,,0.00,,2013-09-16 20:11:00,
2013-09-16 15:22:00,64.0,43.0,-100.00,ENE,63,6.0,12.0,47,0.00,,,0.00,,2013-09-16 20:22:00,
2013-09-16 15:52:00,64.0,44.0,-100.00,NE,55,7.0,14.0,48,0.00,,,0.00,,2013-09-16 20:52:00,
2013-09-16 16:03:00,64.0,44.0,-100.00,NE,55,7.0,14.0,48,0.00,,,0.00,,2013-09-16 21:03:00,
2013-09-16 16:11:00,64.0,44.0,-100.00,NE,55,7.0,14.0,48,0.00,,,0.00,,2013-09-16 21:11:00,
2013-09-16 16:22:00,64.0,44.0,-100.00,NE,55,7.0,14.0,48,0.00,,,0.00,,2013-09-16 21:22:00,
2013-09-16 16:56:00,64.0,45.0,-100.00,NE,35,6.0,14.0,50,0.00,,,0.00,,2013-09-16 21:56:00,
2013-09-16 17:04:00,64.0,45.0,-100.00,NE,35,6.0,14.0,50,0.00,,,0.00,,2013-09-16 22:04:00,
2013-09-16 17:13:00,64.0,45.0,-100.00,NE,35,6.0,14.0,50,0.00,,,0.00,,2013-09-16 22:13:00,
2013-09-16 17:24:00,64.0,45.0,-100.00,NE,35,6.0,14.0,50,0.00,,,0.00,,2013-09-16 22:24:00,
2013-09-16 17:54:00,63.0,45.0,-100.00,NE,42,6.0,13.0,52,0.00,,,0.00,,2013-09-16 22:54:00,
2013-09-16 18:02:00,63.0,45.0,-100.00,NE,42,6.0,13.0,52,0.00,,,0.00,,2013-09-16 23:02:00,
2013-09-16 18:12:00,63.0,45.0,-100.00,NE,42,6.0,13.0,52,0.00,,,0.00,,2013-09-16 23:12:00,
2013-09-16 18:22:00,63.0,45.0,-100.00,NE,42,6.0,13.0,52,0.00,,,0.00,,2013-09-16 23:22:00,
2013-09-16 18:53:00,59.0,45.0,-100.00,East,99,5.0,10.0,59,0.00,,,0.00,,2013-09-16 23:53:00,
2013-09-16 19:02:00,59.0,45.0,-100.00,East,99,5.0,10.0,59,0.00,,,0.00,,2013-09-17 00:02:00,
2013-09-16 19:11:00,59.0,45.0,-100.00,East,99,5.0,10.0,59,0.00,,,0.00,,2013-09-17 00:11:00,
2013-09-16 19:21:00,59.0,45.0,-100.00,East,99,5.0,10.0,59,0.00,,,0.00,,2013-09-17 00:21:00,
2013-09-16 19:52:00,53.0,45.0,-100.00,ESE,103,6.0,11.0,75,0.00,,,0.00,,2013-09-17 00:52:00,
2013-09-16 20:02:00,53.0,45.0,-100.00,ESE,103,6.0,11.0,75,0.00,,,0.00,,2013-09-17 01:02:00,
2013-09-16 20:11:00,53.0,45.0,-100.00,ESE,103,6.0,11.0,75,0.00,,,0.00,,2013-09-17 01:11:00,
2013-09-16 20:21:00,53.0,45.0,-100.00,ESE,103,6.0,11.0,75,0.00,,,0.00,,2013-09-17 01:21:00,
2013-09-16 20:52:00,50.0,42.0,-100.00,East,100,7.0,12.0,75,0.00,,,0.00,,2013-09-17 01:52:00,
2013-09-16 21:03:00,50.0,42.0,-100.00,East,100,7.0,12.0,75,0.00,,,0.00,,2013-09-17 02:03:00,
2013-09-16 21:12:00,50.0,42.0,-100.00,East,100,7.0,12.0,75,0.00,,,0.00,,2013-09-17 02:12:00,
2013-09-16 21:22:00,50.0,42.0,-100.00,East,100,7.0,12.0,75,0.00,,,0.00,,2013-09-17 02:22:00,
2013-09-16 21:52:00,48.0,41.0,-100.00,ESE,107,4.0,11.0,78,0.00,,,0.00,,2013-09-17 02:52:00,
2013-09-16 22:02:00,48.0,41.0,-100.00,ESE,107,4.0,11.0,78,0.00,,,0.00,,2013-09-17 03:02:00,
2013-09-16 22:11:00,48.0,41.0,-100.00,ESE,107,4.0,11.0,78,0.00,,,0.00,,2013-09-17 03:11:00,
2013-09-16 22:23:00,48.0,41.0,-100.00,ESE,107,4.0,11.0,78,0.00,,,0.00,,2013-09-17 03:23:00,
2013-09-16 22:54:00,45.0,40.0,-100.00,East,99,3.0,7.0,84,0.00,,,0.00,,2013-09-17 03:54:00,
2013-09-16 23:05:00,45.0,40.0,-100.00,East,99,3.0,7.0,84,0.00,,,0.00,,2013-09-17 04:05:00,
2013-09-16 23:14:00,45.0,40.0,-100.00,East,99,3.0,7.0,84,0.00,,,0.00,,2013-09-17 04:14:00,
2013-09-16 23:24:00,45.0,40.0,-100.00,East,99,3.0,7.0,84,0.00,,,0.00,,2013-09-17 04:24:00,
2013-09-16 23:54:00,43.0,41.0,-100.00,West,273,3.0,4.0,93,0.00,,,0.00,,2013-09-17 04:54:00,